Ana Sayfa
METAR-TAF:

METAR-TAF

Havaalanları :

Waterville Robert LaFleur Airport

Waterville, Maine, Amerika Birleşik Devletleri

Enlem: 44-32N, Boylam: 069-41W, yükseklik: 101 m

Güncel hava durumu gözlemi

Rapor saat 09:56 UTC de 11 dakika önce yapıldı.
Sakin rüzgar
Sıcaklık 1°C
Nem 86%
Basınç 1013 hPa
Görüş mesafesi: 16.1 km
11000 ft yükseklikte parçalı çok bulutlu

METAR: KWVL 250956Z AUTO 00000KT 10SM BKN110 01/M01 A2990 RMK AO2 SLP156 T00061006 PWINO FZRANO $

Saat: 05:07 (10:07 UTC)


TAF: eksik

4.000'den fazla havaalanı için hava durumu gözlemleri ve tahminleri (METAR ve TAF raporları).

Kullanılabilir istasyonlar harita üzerinde sarı ve kırmızı noktalarla gösterilir.

İstasyonun adını görmek için fareyi noktanın üzerinde gezdirin.

Sonrasında hava gözlem ve tahminlerini görmek için tıklayın.

Haritayı değiştirmek için: yaklaştırmak için siyah artı işaretli yeşil düğmeye ve uzaklaştırmak için de eksi işaretli düğmeye hızla tıklayın; bitişik haritalar için yeşil okları kullanın.


METAR-TAF: